createdAt,value
2019-01-19T00:02:06.540Z,13.00
2019-01-19T00:04:46.470Z,15.63
2019-01-19T00:07:56.264Z,10.53
2019-01-19T00:11:13.201Z,15.13
2019-01-19T00:14:25.334Z,11.50
2019-01-19T00:17:45.007Z,9.90
2019-01-19T00:20:39.673Z,11.50
2019-01-19T00:23:47.308Z,14.65
2019-01-19T00:26:41.705Z,12.37
2019-01-19T00:29:43.849Z,13.15
2019-01-19T00:32:50.148Z,11.73
2019-01-19T00:35:57.428Z,11.55
2019-01-19T00:39:16.713Z,10.90
2019-01-19T00:42:29.372Z,9.03
2019-01-19T00:45:30.173Z,12.73
2019-01-19T00:48:40.853Z,10.68
2019-01-19T00:51:46.270Z,12.35
2019-01-19T00:54:37.153Z,13.05
2019-01-19T00:57:47.010Z,13.68
2019-01-19T01:00:30.757Z,11.12
2019-01-19T01:03:14.619Z,8.33
2019-01-19T01:05:55.257Z,11.10
2019-01-19T01:08:57.938Z,8.08
2019-01-19T01:11:54.360Z,9.08
2019-01-19T01:15:07.793Z,11.00
2019-01-19T01:17:51.849Z,9.33
2019-01-19T01:20:52.358Z,8.53
2019-01-19T01:24:02.604Z,8.55
2019-01-19T01:27:12.392Z,12.30
2019-01-19T01:30:24.092Z,9.10
2019-01-19T01:33:30.297Z,9.20
2019-01-19T01:37:14.456Z,9.43
2019-01-19T01:40:43.433Z,13.35
2019-01-19T01:43:42.453Z,8.98
2019-01-19T01:46:47.399Z,10.18
2019-01-19T01:49:35.630Z,9.15
2019-01-19T01:52:50.916Z,8.50
2019-01-19T01:55:28.521Z,10.30
2019-01-19T01:58:40.979Z,9.95
2019-01-19T02:02:09.929Z,8.13
2019-01-19T02:05:15.169Z,10.20
2019-01-19T02:08:28.658Z,10.18
2019-01-19T02:11:39.435Z,15.60
2019-01-19T02:14:14.841Z,10.17
2019-01-19T02:17:31.186Z,11.15
2019-01-19T02:20:24.779Z,8.43
2019-01-19T02:23:44.196Z,11.53
2019-01-19T02:26:29.171Z,10.38
2019-01-19T02:29:29.802Z,11.03
2019-01-19T02:32:12.955Z,8.30
2019-01-19T02:35:06.038Z,9.63
2019-01-19T02:37:55.537Z,15.60
2019-01-19T02:41:15.018Z,15.13
2019-01-19T02:44:25.689Z,11.73
2019-01-19T02:47:51.599Z,9.00
2019-01-19T02:50:57.958Z,11.57
2019-01-19T02:53:58.806Z,11.15
2019-01-19T02:57:12.475Z,12.35
2019-01-19T02:59:53.665Z,11.30
2019-01-19T03:02:52.449Z,15.20
2019-01-19T03:05:56.194Z,11.60
2019-01-19T03:08:55.247Z,15.53
2019-01-19T03:11:59.968Z,14.58
2019-01-19T03:15:13.653Z,16.37
2019-01-19T03:18:18.454Z,18.50
2019-01-19T03:21:20.363Z,17.42
2019-01-19T03:24:24.208Z,16.85
2019-01-19T03:27:18.785Z,19.48
2019-01-19T03:30:30.825Z,18.42
2019-01-19T03:33:50.556Z,18.55
2019-01-19T03:37:03.982Z,15.28
2019-01-19T03:40:12.815Z,11.78
2019-01-19T03:43:34.291Z,17.17
2019-01-19T03:46:32.409Z,17.40
2019-01-19T03:49:43.414Z,18.48
2019-01-19T03:53:02.642Z,15.65
2019-01-19T03:56:02.434Z,15.53
2019-01-19T03:59:13.264Z,20.82
2019-01-19T04:02:23.277Z,14.55
2019-01-19T04:05:27.253Z,15.78
2019-01-19T04:08:23.922Z,14.40
2019-01-19T04:11:12.731Z,16.65
2019-01-19T04:14:20.364Z,14.18
2019-01-19T04:17:26.768Z,14.98
2019-01-19T04:20:22.867Z,18.32
2019-01-19T04:22:55.865Z,17.23
2019-01-19T04:26:04.182Z,17.05
2019-01-19T04:28:33.646Z,16.00
2019-01-19T04:31:03.136Z,20.17
2019-01-19T04:33:32.561Z,19.25
2019-01-19T04:36:02.057Z,15.35
2019-01-19T04:38:33.651Z,13.28
2019-01-19T04:41:03.267Z,18.35
2019-01-19T04:43:32.769Z,19.75
2019-01-19T04:46:02.248Z,15.72
2019-01-19T04:48:31.944Z,19.52
2019-01-19T04:51:01.425Z,17.37
2019-01-19T04:53:30.858Z,18.20
2019-01-19T04:56:00.306Z,16.45
2019-01-19T04:58:29.740Z,17.50
2019-01-19T05:00:59.240Z,20.70
2019-01-19T05:03:28.715Z,16.93
2019-01-19T05:05:58.175Z,18.05
2019-01-19T05:08:27.675Z,19.30
2019-01-19T05:10:57.154Z,14.50
2019-01-19T05:13:26.585Z,17.95
2019-01-19T05:15:56.023Z,15.78
2019-01-19T05:18:25.791Z,16.77
2019-01-19T05:20:55.560Z,17.12
2019-01-19T05:23:25.386Z,15.88
2019-01-19T05:25:54.831Z,23.00
2019-01-19T05:28:24.263Z,25.32
2019-01-19T05:30:53.724Z,16.67
2019-01-19T05:33:23.165Z,16.25
2019-01-19T05:35:52.606Z,16.15
2019-01-19T05:38:22.098Z,18.73
2019-01-19T05:40:51.705Z,17.82
2019-01-19T05:43:21.134Z,15.95
2019-01-19T05:45:50.553Z,19.98
2019-01-19T05:48:20.011Z,15.78
2019-01-19T05:50:49.445Z,18.65
2019-01-19T05:53:18.890Z,18.05
2019-01-19T05:55:48.406Z,21.48
2019-01-19T05:58:17.884Z,21.52
2019-01-19T06:00:47.317Z,22.22
2019-01-19T06:03:16.755Z,21.17
2019-01-19T06:05:46.480Z,23.55
2019-01-19T06:08:15.927Z,20.12
2019-01-19T06:10:45.374Z,22.42
2019-01-19T06:13:14.872Z,23.60
2019-01-19T06:15:44.333Z,21.10
2019-01-19T06:18:13.811Z,22.75
2019-01-19T06:20:43.218Z,22.90
2019-01-19T06:23:12.673Z,17.85
2019-01-19T06:25:42.102Z,17.40
2019-01-19T06:28:11.602Z,22.30
2019-01-19T06:30:41.017Z,20.37
2019-01-19T06:33:10.471Z,16.57
2019-01-19T06:35:39.893Z,18.25
2019-01-19T06:38:09.386Z,17.12
2019-01-19T06:40:38.803Z,18.55
2019-01-19T06:43:08.284Z,18.07
2019-01-19T06:45:37.702Z,21.45
2019-01-19T06:48:07.528Z,21.20
2019-01-19T06:50:36.954Z,20.95
2019-01-19T06:53:06.398Z,18.80
2019-01-19T06:55:37.100Z,18.77
2019-01-19T06:58:06.641Z,19.60
2019-01-19T07:00:36.153Z,21.52
2019-01-19T07:03:06.306Z,20.37
2019-01-19T07:05:36.022Z,16.48
2019-01-19T07:08:05.696Z,19.12
2019-01-19T07:10:35.466Z,20.45
2019-01-19T07:13:05.023Z,21.20
2019-01-19T07:15:34.445Z,23.52
2019-01-19T07:18:03.890Z,22.52
2019-01-19T07:20:33.404Z,19.00
2019-01-19T07:23:02.823Z,23.92
2019-01-19T07:25:32.270Z,24.43
2019-01-19T07:28:01.786Z,18.20
2019-01-19T07:30:31.256Z,21.57
2019-01-19T07:33:00.722Z,23.22
2019-01-19T07:35:30.187Z,23.60
2019-01-19T07:37:59.656Z,19.90
2019-01-19T07:40:29.111Z,23.87
2019-01-19T07:43:06.915Z,19.73
2019-01-19T07:45:36.522Z,17.00
2019-01-19T07:48:06.625Z,19.37
2019-01-19T07:50:36.230Z,21.37
2019-01-19T07:53:05.769Z,22.82
2019-01-19T07:55:35.543Z,20.37
2019-01-19T07:58:05.076Z,20.15
2019-01-19T08:00:34.799Z,20.90
2019-01-19T08:03:04.577Z,18.65
2019-01-19T08:05:34.059Z,23.65
2019-01-19T08:08:03.964Z,21.20
2019-01-19T08:10:34.505Z,19.82
2019-01-19T08:13:04.335Z,20.80
2019-01-19T08:15:33.820Z,17.30
2019-01-19T08:18:03.791Z,19.98
2019-01-19T08:20:34.440Z,22.32
2019-01-19T08:23:04.305Z,20.50
2019-01-19T08:25:34.823Z,27.15
2019-01-19T08:28:05.125Z,19.17
2019-01-19T08:30:34.878Z,19.32
2019-01-19T08:33:04.321Z,22.93
2019-01-19T08:35:34.660Z,22.67
2019-01-19T08:38:04.463Z,20.00
2019-01-19T08:40:37.802Z,29.48
2019-01-19T08:43:15.402Z,23.38
2019-01-19T08:45:44.996Z,23.27
2019-01-19T08:48:14.781Z,23.32
2019-01-19T08:50:44.308Z,23.40
2019-01-19T08:53:13.773Z,24.45
2019-01-19T08:55:43.262Z,21.62
2019-01-19T08:58:13.184Z,24.90
2019-01-19T09:00:42.573Z,26.93
2019-01-19T09:03:12.161Z,20.12
2019-01-19T09:05:41.595Z,17.57
2019-01-19T09:08:11.055Z,20.40
2019-01-19T09:10:40.543Z,19.73
2019-01-19T09:13:10.075Z,23.22
2019-01-19T09:15:39.636Z,19.82
2019-01-19T09:18:09.258Z,15.90
2019-01-19T09:20:38.842Z,21.25
2019-01-19T09:23:15.444Z,21.40
2019-01-19T09:25:45.068Z,20.43
2019-01-19T09:28:14.551Z,25.37
2019-01-19T09:30:44.425Z,23.75
2019-01-19T09:33:13.965Z,24.45
2019-01-19T09:35:43.520Z,24.67
2019-01-19T09:38:13.213Z,19.45
2019-01-19T09:40:42.817Z,25.45
2019-01-19T09:43:12.436Z,21.50
2019-01-19T09:45:42.361Z,24.77
2019-01-19T09:48:12.052Z,20.10
2019-01-19T09:50:41.495Z,22.67
2019-01-19T09:53:11.221Z,21.10
2019-01-19T09:55:40.811Z,20.35
2019-01-19T09:58:10.490Z,23.45
2019-01-19T10:00:45.556Z,27.22
2019-01-19T10:03:11.087Z,19.98
2019-01-19T10:05:40.652Z,21.02
2019-01-19T10:08:10.270Z,19.02
2019-01-19T10:10:40.085Z,20.37
2019-01-19T10:13:09.632Z,23.10
2019-01-19T10:15:39.339Z,21.00
2019-01-19T10:18:08.945Z,20.32
2019-01-19T10:20:38.398Z,21.82
2019-01-19T10:23:08.100Z,19.95
2019-01-19T10:25:37.591Z,24.55
2019-01-19T10:28:07.012Z,19.77
2019-01-19T10:30:36.498Z,20.08
2019-01-19T10:33:06.014Z,21.45
2019-01-19T10:35:35.580Z,18.65
2019-01-19T10:38:05.023Z,22.37
2019-01-19T10:40:34.482Z,23.98
2019-01-19T10:43:12.251Z,20.62
2019-01-19T10:45:41.705Z,22.02
2019-01-19T10:48:11.138Z,18.65
2019-01-19T10:50:40.591Z,20.33
2019-01-19T10:53:10.035Z,20.40
2019-01-19T10:55:39.564Z,19.20
2019-01-19T10:58:09.039Z,23.40
2019-01-19T11:00:38.494Z,20.50
2019-01-19T11:03:07.927Z,17.43
2019-01-19T11:05:37.379Z,21.47
2019-01-19T11:08:08.632Z,19.37
2019-01-19T11:10:38.064Z,21.57
2019-01-19T11:13:07.548Z,15.33
2019-01-19T11:15:36.997Z,18.73
2019-01-19T11:18:06.715Z,15.33
2019-01-19T11:20:36.213Z,16.00
2019-01-19T11:23:05.745Z,17.33
2019-01-19T11:25:35.198Z,21.50
2019-01-19T11:28:04.841Z,16.13
2019-01-19T11:30:34.343Z,18.70
2019-01-19T11:33:04.263Z,16.17
2019-01-19T11:35:33.709Z,14.53
2019-01-19T11:38:03.165Z,17.17
2019-01-19T11:40:35.348Z,20.33
2019-01-19T11:43:05.693Z,15.67
2019-01-19T11:45:35.263Z,15.73
2019-01-19T11:48:05.517Z,17.70
2019-01-19T11:50:35.003Z,14.53
2019-01-19T11:53:04.478Z,16.50
2019-01-19T11:55:33.933Z,20.13
2019-01-19T11:58:05.613Z,17.97
2019-01-19T12:00:37.194Z,19.43
2019-01-19T12:03:07.225Z,21.90
2019-01-19T12:05:37.453Z,20.30
2019-01-19T12:08:07.993Z,16.50
2019-01-19T12:10:37.439Z,18.57
2019-01-19T12:13:07.068Z,16.73
2019-01-19T12:15:36.671Z,19.43
2019-01-19T12:18:06.778Z,20.97
2019-01-19T12:20:38.965Z,18.63
2019-01-19T12:23:09.091Z,19.13
2019-01-19T12:25:38.658Z,17.23
2019-01-19T12:28:08.104Z,16.37
2019-01-19T12:30:37.541Z,15.50
2019-01-19T12:33:07.129Z,14.17
2019-01-19T12:35:36.567Z,14.73
2019-01-19T12:38:06.038Z,19.83
2019-01-19T12:40:35.599Z,19.27
2019-01-19T12:43:17.219Z,17.43
2019-01-19T12:45:54.873Z,16.70
2019-01-19T12:48:24.353Z,16.77
2019-01-19T12:50:53.765Z,19.53
2019-01-19T12:53:23.225Z,16.30
2019-01-19T12:55:52.635Z,16.80
2019-01-19T12:58:22.214Z,17.23
2019-01-19T13:00:51.705Z,23.00
2019-01-19T13:03:21.154Z,16.23
2019-01-19T13:06:10.736Z,15.40
2019-01-19T13:08:40.190Z,15.77
2019-01-19T13:12:03.446Z,14.93
2019-01-19T13:14:34.746Z,14.50
2019-01-19T13:17:52.704Z,17.37
2019-01-19T13:20:55.260Z,13.47
2019-01-19T13:23:52.692Z,17.13
2019-01-19T13:26:53.627Z,14.57
2019-01-19T13:30:08.784Z,15.23
2019-01-19T13:33:13.332Z,18.53
2019-01-19T13:36:18.886Z,14.50
2019-01-19T13:39:32.352Z,19.93
2019-01-19T13:42:39.351Z,16.10
2019-01-19T13:45:42.089Z,17.50
2019-01-19T13:49:16.692Z,15.73
2019-01-19T13:52:42.410Z,16.20
2019-01-19T13:55:37.810Z,18.10
2019-01-19T13:58:41.152Z,18.83
2019-01-19T14:01:50.793Z,17.95
2019-01-19T14:05:13.593Z,13.83
2019-01-19T14:08:23.013Z,15.68
2019-01-19T14:11:19.915Z,14.28
2019-01-19T14:14:18.658Z,16.07
2019-01-19T14:17:35.096Z,18.30
2019-01-19T14:20:22.080Z,16.27
2019-01-19T14:23:41.526Z,17.62
2019-01-19T14:27:01.541Z,20.90
2019-01-19T14:30:00.563Z,17.30
2019-01-19T14:32:53.099Z,16.43
2019-01-19T14:36:10.269Z,17.05
2019-01-19T14:39:07.168Z,18.90
2019-01-19T14:42:07.693Z,15.75
2019-01-19T14:45:08.165Z,19.27
2019-01-19T14:48:18.522Z,20.85
2019-01-19T14:51:21.461Z,16.10
2019-01-19T14:54:53.208Z,15.10
2019-01-19T14:58:11.750Z,18.65
2019-01-19T15:01:23.198Z,18.77
2019-01-19T15:04:17.137Z,14.70
2019-01-19T15:07:32.684Z,19.30
2019-01-19T15:10:27.396Z,14.80
2019-01-19T15:13:35.472Z,20.97
2019-01-19T15:16:55.107Z,16.48
2019-01-19T15:20:02.736Z,18.23
2019-01-19T15:23:23.629Z,15.53
2019-01-19T15:26:40.109Z,16.20
2019-01-19T15:29:50.604Z,17.17
2019-01-19T15:32:56.582Z,14.15
2019-01-19T15:35:52.642Z,18.47
2019-01-19T15:38:53.281Z,17.10
2019-01-19T15:42:09.186Z,21.57
2019-01-19T15:45:31.525Z,15.63
2019-01-19T15:48:57.431Z,21.77
2019-01-19T15:52:01.772Z,19.48
2019-01-19T15:55:30.302Z,18.85
2019-01-19T15:58:30.306Z,18.20
2019-01-19T16:01:31.889Z,17.87
2019-01-19T16:04:38.453Z,15.97
2019-01-19T16:07:54.567Z,17.82
2019-01-19T16:11:07.369Z,17.73
2019-01-19T16:14:16.941Z,18.10
2019-01-19T16:17:23.229Z,18.40
2019-01-19T16:20:39.605Z,19.48
2019-01-19T16:23:27.661Z,21.65
2019-01-19T16:26:53.697Z,31.60
2019-01-19T16:29:54.034Z,24.27
2019-01-19T16:32:42.755Z,19.45
2019-01-19T16:36:07.504Z,30.25
2019-01-19T16:39:30.231Z,20.17
2019-01-19T16:42:07.172Z,19.87
2019-01-19T16:45:23.436Z,21.70
2019-01-19T16:48:21.890Z,22.75
2019-01-19T16:51:14.919Z,27.35
2019-01-19T16:54:10.701Z,19.98
2019-01-19T16:57:22.359Z,18.15
2019-01-19T17:00:38.968Z,20.82
2019-01-19T17:03:43.825Z,16.70
2019-01-19T17:07:03.188Z,17.87
2019-01-19T17:10:12.873Z,25.97
2019-01-19T17:13:10.227Z,18.62
2019-01-19T17:16:12.994Z,22.90
2019-01-19T17:19:24.410Z,19.82
2019-01-19T17:22:22.089Z,18.90
2019-01-19T17:25:44.609Z,18.75
2019-01-19T17:29:04.445Z,18.60
2019-01-19T17:31:59.355Z,20.57
2019-01-19T17:35:11.751Z,22.27
2019-01-19T17:37:54.003Z,22.87
2019-01-19T17:41:01.654Z,31.12
2019-01-19T17:44:14.566Z,20.20
2019-01-19T17:47:37.265Z,23.10
2019-01-19T17:50:38.568Z,49.33
2019-01-19T17:53:29.009Z,89.40
2019-01-19T17:56:21.473Z,33.50
2019-01-19T17:59:26.487Z,43.83
2019-01-19T18:02:21.576Z,37.83
2019-01-19T18:05:26.616Z,28.83
2019-01-19T18:08:28.175Z,34.48
2019-01-19T18:11:12.142Z,30.40
2019-01-19T18:14:26.275Z,23.98
2019-01-19T18:17:49.373Z,21.33
2019-01-19T18:20:57.110Z,19.67
2019-01-19T18:24:07.500Z,23.27
2019-01-19T18:27:12.038Z,28.15
2019-01-19T18:30:18.227Z,24.90
2019-01-19T18:33:03.980Z,26.90
2019-01-19T18:36:12.076Z,24.90
2019-01-19T18:39:17.461Z,20.90
2019-01-19T18:42:14.716Z,18.50
2019-01-19T18:45:20.968Z,22.05
2019-01-19T18:48:28.199Z,21.52
2019-01-19T18:51:53.988Z,20.85
2019-01-19T18:54:51.191Z,21.80
2019-01-19T18:58:03.826Z,19.25
2019-01-19T19:01:23.698Z,29.98
2019-01-19T19:04:40.601Z,25.50
2019-01-19T19:07:38.115Z,28.38
2019-01-19T19:11:06.610Z,22.27
2019-01-19T19:13:55.254Z,23.83
2019-01-19T19:16:48.699Z,19.90
2019-01-19T19:20:11.053Z,23.15
2019-01-19T19:23:24.150Z,20.23
2019-01-19T19:26:03.593Z,22.15
2019-01-19T19:29:16.135Z,19.20
2019-01-19T19:32:19.173Z,17.40
2019-01-19T19:35:43.437Z,20.62
2019-01-19T19:38:46.322Z,17.12
2019-01-19T19:42:02.703Z,21.97
2019-01-19T19:45:06.557Z,17.10
2019-01-19T19:48:35.114Z,22.45
2019-01-19T19:51:39.470Z,15.88
2019-01-19T19:54:09.008Z,19.62
2019-01-19T19:56:36.829Z,23.57
2019-01-19T19:59:06.370Z,25.68
2019-01-19T20:01:35.923Z,24.60
2019-01-19T20:04:05.476Z,23.52
2019-01-19T20:06:35.085Z,24.02
2019-01-19T20:09:06.926Z,21.20
2019-01-19T20:11:36.595Z,19.98
2019-01-19T20:14:06.558Z,27.05
2019-01-19T20:16:36.195Z,28.52
2019-01-19T20:19:05.947Z,24.47
2019-01-19T20:21:35.458Z,28.57
2019-01-19T20:24:04.905Z,26.37
2019-01-19T20:26:34.442Z,26.50
2019-01-19T20:29:04.062Z,25.70
2019-01-19T20:31:33.704Z,21.00
2019-01-19T20:34:03.319Z,23.83
2019-01-19T20:36:32.804Z,24.15
2019-01-19T20:39:02.366Z,33.38
2019-01-19T20:41:31.924Z,21.42
2019-01-19T20:44:01.383Z,28.15
2019-01-19T20:46:31.135Z,31.02
2019-01-19T20:49:00.666Z,27.37
2019-01-19T20:51:30.103Z,30.40
2019-01-19T20:53:59.557Z,28.95
2019-01-19T20:56:30.055Z,23.50
2019-01-19T20:58:59.537Z,23.73
2019-01-19T21:01:29.092Z,29.20
2019-01-19T21:03:58.595Z,33.25
2019-01-19T21:06:28.102Z,30.35
2019-01-19T21:08:57.562Z,23.67
2019-01-19T21:11:27.013Z,27.07
2019-01-19T21:13:56.495Z,23.25
2019-01-19T21:16:25.952Z,20.88
2019-01-19T21:18:55.404Z,17.70
2019-01-19T21:21:24.835Z,19.55
2019-01-19T21:23:54.322Z,24.27
2019-01-19T21:26:23.825Z,24.65
2019-01-19T21:28:53.277Z,21.77
2019-01-19T21:31:23.810Z,20.05
2019-01-19T21:33:53.271Z,23.05
2019-01-19T21:36:22.742Z,25.85
2019-01-19T21:38:52.190Z,25.35
2019-01-19T21:41:21.633Z,23.20
2019-01-19T21:43:51.114Z,23.18
2019-01-19T21:46:20.631Z,22.10
2019-01-19T21:48:50.171Z,25.48
2019-01-19T21:51:19.683Z,20.20
2019-01-19T21:53:49.156Z,22.60
2019-01-19T21:56:18.578Z,21.48
2019-01-19T21:58:48.043Z,21.75
2019-01-19T22:01:17.524Z,23.30
2019-01-19T22:03:46.972Z,26.70
2019-01-19T22:06:16.429Z,23.38
2019-01-19T22:08:45.866Z,22.98
2019-01-19T22:11:15.301Z,22.25
2019-01-19T22:13:44.746Z,22.00
2019-01-19T22:16:14.219Z,23.05
2019-01-19T22:18:43.658Z,25.00
2019-01-19T22:21:13.068Z,24.20
2019-01-19T22:23:42.500Z,24.57
2019-01-19T22:26:13.534Z,22.73
2019-01-19T22:28:42.955Z,20.52
2019-01-19T22:31:12.410Z,22.85
2019-01-19T22:33:41.852Z,23.98
2019-01-19T22:36:11.316Z,23.95
2019-01-19T22:38:40.768Z,22.93
2019-01-19T22:41:10.222Z,20.20
2019-01-19T22:43:39.699Z,21.07
2019-01-19T22:46:09.148Z,23.55
2019-01-19T22:48:38.564Z,23.10
2019-01-19T22:51:11.342Z,24.35
2019-01-19T22:53:39.145Z,19.82
2019-01-19T22:56:08.587Z,23.77
2019-01-19T22:58:38.015Z,24.55
2019-01-19T23:01:23.962Z,21.12
2019-01-19T23:03:53.739Z,24.10
2019-01-19T23:06:23.231Z,21.48
2019-01-19T23:08:52.703Z,19.87
2019-01-19T23:11:22.166Z,28.87
2019-01-19T23:13:51.647Z,24.35
2019-01-19T23:16:21.109Z,26.30
2019-01-19T23:18:50.615Z,24.27
2019-01-19T23:21:20.054Z,21.93
2019-01-19T23:23:49.474Z,24.47
2019-01-19T23:26:19.184Z,23.73
2019-01-19T23:28:48.607Z,26.17
2019-01-19T23:31:18.061Z,24.10
2019-01-19T23:33:47.488Z,24.85
2019-01-19T23:36:16.941Z,19.77
2019-01-19T23:38:46.406Z,22.37
2019-01-19T23:41:15.887Z,21.70
2019-01-19T23:43:45.373Z,24.90
2019-01-19T23:46:14.869Z,22.40
2019-01-19T23:48:44.292Z,26.05
2019-01-19T23:51:13.737Z,26.15
2019-01-19T23:53:43.157Z,25.68
2019-01-19T23:56:12.706Z,24.40
2019-01-19T23:58:42.070Z,24.43
